createdAt,value
2022-11-07T00:00:59.352Z,35.70
2022-11-07T00:04:00.913Z,35.53
2022-11-07T00:07:02.950Z,36.43
2022-11-07T00:10:05.284Z,36.80
2022-11-07T00:13:06.932Z,37.90
2022-11-07T00:16:09.585Z,37.40
2022-11-07T00:19:11.783Z,37.90
2022-11-07T00:22:13.346Z,38.93
2022-11-07T00:25:14.876Z,38.90
2022-11-07T00:28:16.508Z,39.40
2022-11-07T00:31:18.225Z,39.53
2022-11-07T00:34:19.807Z,39.23
2022-11-07T00:37:21.356Z,39.80
2022-11-07T00:40:23.243Z,39.97
2022-11-07T00:43:25.281Z,38.63
2022-11-07T00:46:26.840Z,39.03
2022-11-07T00:49:28.412Z,36.90
2022-11-07T00:52:30.372Z,39.00
2022-11-07T00:55:32.377Z,39.00
2022-11-07T00:58:34.320Z,39.43
2022-11-07T01:01:36.044Z,39.20
2022-11-07T01:04:56.392Z,40.87
2022-11-07T01:07:57.914Z,38.70
2022-11-07T01:11:02.707Z,38.33
2022-11-07T01:14:04.436Z,40.73
2022-11-07T01:17:06.049Z,40.10
2022-11-07T01:20:07.883Z,39.17
2022-11-07T01:23:09.591Z,39.07
2022-11-07T01:26:12.261Z,38.13
2022-11-07T01:29:14.223Z,39.03
2022-11-07T01:32:15.873Z,38.33
2022-11-07T01:35:17.436Z,37.83
2022-11-07T01:38:19.130Z,37.37
2022-11-07T01:41:25.601Z,36.63
2022-11-07T01:44:27.304Z,36.50
2022-11-07T01:47:31.300Z,37.47
2022-11-07T01:50:32.893Z,38.07
2022-11-07T01:53:35.623Z,38.40
2022-11-07T01:56:38.068Z,38.00
2022-11-07T01:59:40.267Z,36.50
2022-11-07T02:02:42.664Z,38.13
2022-11-07T02:05:47.000Z,37.57
2022-11-07T02:08:49.117Z,37.43
2022-11-07T02:11:50.675Z,37.33
2022-11-07T02:14:52.248Z,37.40
2022-11-07T02:17:53.933Z,36.33
2022-11-07T02:20:57.321Z,37.67
2022-11-07T02:24:04.952Z,37.37
2022-11-07T02:27:09.240Z,37.53
2022-11-07T02:30:15.769Z,38.53
2022-11-07T02:33:21.653Z,40.30
2022-11-07T02:36:24.028Z,41.03
2022-11-07T02:39:25.868Z,40.10
2022-11-07T02:42:43.341Z,41.97
2022-11-07T02:45:46.443Z,43.07
2022-11-07T02:48:52.385Z,42.43
2022-11-07T02:51:54.000Z,40.60
2022-11-07T02:54:56.123Z,41.97
2022-11-07T02:57:57.875Z,41.87
2022-11-07T03:01:08.751Z,43.93
2022-11-07T03:04:10.316Z,43.50
2022-11-07T03:07:11.954Z,43.30
2022-11-07T03:10:14.520Z,42.17
2022-11-07T03:13:16.570Z,43.43
2022-11-07T03:16:19.129Z,43.93
2022-11-07T03:19:20.711Z,43.17
2022-11-07T03:22:22.296Z,44.07
2022-11-07T03:25:23.871Z,43.53
2022-11-07T03:28:25.896Z,44.57
2022-11-07T03:31:27.485Z,42.33
2022-11-07T03:34:29.063Z,41.67
2022-11-07T03:37:30.656Z,43.33
2022-11-07T03:40:32.225Z,42.77
2022-11-07T03:43:33.863Z,43.63
2022-11-07T03:46:36.616Z,44.60
2022-11-07T03:49:38.173Z,46.53
2022-11-07T03:52:39.731Z,45.40
2022-11-07T03:55:42.748Z,47.30
2022-11-07T03:58:44.312Z,47.23
2022-11-07T04:01:46.076Z,45.70
2022-11-07T04:04:47.772Z,46.20
2022-11-07T04:07:49.323Z,46.13
2022-11-07T04:10:50.941Z,48.83
2022-11-07T04:14:11.169Z,41.77
2022-11-07T04:17:18.824Z,40.37
2022-11-07T04:20:20.435Z,43.80
2022-11-07T04:23:22.094Z,41.87
2022-11-07T04:26:42.308Z,42.80
2022-11-07T04:29:43.945Z,40.83
2022-11-07T04:32:46.529Z,42.53
2022-11-07T04:35:48.232Z,41.43
2022-11-07T04:38:49.817Z,41.13
2022-11-07T04:41:51.405Z,43.37
2022-11-07T04:44:52.917Z,42.73
2022-11-07T04:47:54.468Z,40.33
2022-11-07T04:50:56.348Z,40.63
2022-11-07T04:53:57.962Z,41.47
2022-11-07T04:56:59.540Z,42.80
2022-11-07T05:00:01.424Z,43.10
2022-11-07T05:03:03.424Z,42.60
2022-11-07T05:06:05.147Z,42.40
2022-11-07T05:09:06.851Z,41.17
2022-11-07T05:12:08.424Z,43.90
2022-11-07T05:15:10.179Z,41.73
2022-11-07T05:18:11.891Z,42.50
2022-11-07T05:21:13.524Z,46.83
2022-11-07T05:24:15.154Z,43.23
2022-11-07T05:27:17.908Z,47.70
2022-11-07T05:30:19.638Z,49.37
2022-11-07T05:33:21.359Z,46.47
2022-11-07T05:36:23.996Z,43.87
2022-11-07T05:39:25.582Z,45.73
2022-11-07T05:42:27.179Z,45.77
2022-11-07T05:45:31.611Z,47.73
2022-11-07T05:48:33.349Z,42.37
2022-11-07T05:51:34.981Z,41.50
2022-11-07T05:54:36.680Z,42.07
2022-11-07T05:57:38.355Z,42.37
2022-11-07T06:00:40.617Z,42.57
2022-11-07T06:03:42.209Z,41.07
2022-11-07T06:06:43.919Z,41.87
2022-11-07T06:09:45.566Z,41.97
2022-11-07T06:12:48.764Z,42.53
2022-11-07T06:15:51.848Z,42.53
2022-11-07T06:18:53.431Z,42.53
2022-11-07T06:21:55.015Z,43.40
2022-11-07T06:24:57.610Z,43.13
2022-11-07T06:28:02.182Z,45.10
2022-11-07T06:31:04.425Z,43.83
2022-11-07T06:34:05.994Z,44.00
2022-11-07T06:37:07.688Z,45.50
2022-11-07T06:40:09.797Z,44.20
2022-11-07T06:43:13.387Z,44.77
2022-11-07T06:46:17.372Z,53.10
2022-11-07T06:49:18.947Z,43.73
2022-11-07T06:52:20.588Z,41.97
2022-11-07T06:55:22.207Z,41.17
2022-11-07T06:58:23.841Z,39.70
2022-11-07T07:01:25.692Z,41.03
2022-11-07T07:04:27.412Z,40.70
2022-11-07T07:07:29.725Z,39.97
2022-11-07T07:10:31.380Z,38.87
2022-11-07T07:13:33.402Z,41.53
2022-11-07T07:16:34.971Z,35.60
2022-11-07T07:19:37.566Z,33.67
2022-11-07T07:22:40.319Z,30.93
2022-11-07T07:25:41.943Z,93.83
2022-11-07T07:28:44.369Z,31.07
2022-11-07T07:31:46.181Z,31.27
2022-11-07T07:34:48.113Z,31.57
2022-11-07T07:37:50.962Z,31.70
2022-11-07T07:40:52.529Z,39.80
2022-11-07T07:43:54.115Z,32.83
2022-11-07T07:46:55.693Z,33.23
2022-11-07T07:49:57.279Z,30.50
2022-11-07T07:52:58.931Z,30.90
2022-11-07T07:56:00.743Z,29.30
2022-11-07T07:59:03.253Z,29.23
2022-11-07T08:02:04.899Z,27.67
2022-11-07T08:05:06.775Z,27.13
2022-11-07T08:08:08.530Z,26.23
2022-11-07T08:11:10.687Z,24.93
2022-11-07T08:14:12.302Z,26.23
2022-11-07T08:17:13.883Z,25.30
2022-11-07T08:20:16.599Z,21.53
2022-11-07T08:23:18.694Z,22.13
2022-11-07T08:26:20.583Z,22.10
2022-11-07T08:29:22.492Z,20.97
2022-11-07T08:32:24.804Z,20.97
2022-11-07T08:35:26.669Z,20.50
2022-11-07T08:38:29.022Z,19.17
2022-11-07T08:41:30.580Z,19.03
2022-11-07T08:44:37.046Z,19.10
2022-11-07T08:47:38.888Z,17.90
2022-11-07T08:50:40.506Z,19.77
2022-11-07T08:53:42.090Z,20.20
2022-11-07T08:56:43.719Z,20.53
2022-11-07T08:59:45.394Z,19.80
2022-11-07T09:03:18.338Z,20.87
2022-11-07T09:06:08.665Z,23.70
2022-11-07T09:09:15.479Z,22.90
2022-11-07T09:12:18.292Z,23.37
2022-11-07T09:15:19.919Z,20.23
2022-11-07T09:18:21.581Z,25.00
2022-11-07T09:21:23.145Z,24.33
2022-11-07T09:24:25.210Z,21.77
2022-11-07T09:27:26.854Z,23.10
2022-11-07T09:30:28.450Z,24.67
2022-11-07T09:33:30.584Z,25.37
2022-11-07T09:36:32.215Z,24.27
2022-11-07T09:39:34.124Z,25.67
2022-11-07T09:42:53.694Z,25.40
2022-11-07T09:46:01.358Z,23.07
2022-11-07T09:49:02.951Z,22.80
2022-11-07T09:52:04.480Z,19.70
2022-11-07T09:55:17.768Z,21.17
2022-11-07T09:58:31.561Z,21.57
2022-11-07T10:01:33.656Z,20.77
2022-11-07T10:04:35.637Z,20.70
2022-11-07T10:07:42.163Z,19.87
2022-11-07T10:10:54.926Z,20.40
2022-11-07T10:14:01.639Z,18.40
2022-11-07T10:17:06.285Z,17.73
2022-11-07T10:20:33.120Z,19.60
2022-11-07T10:23:42.640Z,18.97
2022-11-07T10:26:44.742Z,19.27
2022-11-07T10:29:48.018Z,19.70
2022-11-07T10:33:11.099Z,17.60
2022-11-07T10:36:15.712Z,18.43
2022-11-07T10:39:18.484Z,19.20
2022-11-07T10:42:21.149Z,18.67
2022-11-07T10:45:23.657Z,19.73
2022-11-07T10:48:25.882Z,19.73
2022-11-07T10:51:34.607Z,20.57
2022-11-07T10:54:36.349Z,22.33
2022-11-07T10:57:38.026Z,21.27
2022-11-07T11:00:39.792Z,21.13
2022-11-07T11:03:44.818Z,21.17
2022-11-07T11:06:55.989Z,21.50
2022-11-07T11:09:58.140Z,22.57
2022-11-07T11:12:59.755Z,22.83
2022-11-07T11:16:13.336Z,19.23
2022-11-07T11:19:21.106Z,18.73
2022-11-07T11:22:24.176Z,20.47
2022-11-07T11:25:26.217Z,20.40
2022-11-07T11:28:39.888Z,19.17
2022-11-07T11:31:43.438Z,19.40
2022-11-07T11:35:00.926Z,19.30
2022-11-07T11:38:21.433Z,18.83
2022-11-07T11:41:35.366Z,19.20
2022-11-07T11:44:41.199Z,18.23
2022-11-07T11:47:46.639Z,17.40
2022-11-07T11:50:50.168Z,18.83
2022-11-07T11:53:52.153Z,17.47
2022-11-07T11:56:59.661Z,16.10
2022-11-07T12:00:04.032Z,15.13
2022-11-07T12:03:09.606Z,17.07
2022-11-07T12:06:20.176Z,16.33
2022-11-07T12:09:42.076Z,15.57
2022-11-07T12:13:00.992Z,15.13
2022-11-07T12:16:08.938Z,14.20
2022-11-07T12:19:29.207Z,14.00
2022-11-07T12:22:51.682Z,15.17
2022-11-07T12:26:10.269Z,15.83
2022-11-07T12:29:41.257Z,15.63
2022-11-07T12:32:48.876Z,15.07
2022-11-07T12:35:50.422Z,15.70
2022-11-07T12:39:04.088Z,16.60
2022-11-07T12:42:28.732Z,16.70
2022-11-07T12:45:56.627Z,16.13
2022-11-07T12:48:58.219Z,14.83
2022-11-07T12:52:09.300Z,15.07
2022-11-07T12:55:17.034Z,17.20
2022-11-07T12:58:21.710Z,15.83
2022-11-07T13:01:33.829Z,16.10
2022-11-07T13:04:45.529Z,15.70
2022-11-07T13:07:58.942Z,17.60
2022-11-07T13:11:20.791Z,15.57
2022-11-07T13:14:33.109Z,16.40
2022-11-07T13:17:42.268Z,16.33
2022-11-07T13:20:43.872Z,17.07
2022-11-07T13:23:46.483Z,17.73
2022-11-07T13:26:48.437Z,15.73
2022-11-07T13:29:50.368Z,15.30
2022-11-07T13:32:52.005Z,15.97
2022-11-07T13:35:54.829Z,16.23
2022-11-07T13:38:58.685Z,16.50
2022-11-07T13:42:00.710Z,17.20
2022-11-07T13:45:19.472Z,16.47
2022-11-07T13:48:22.766Z,16.87
2022-11-07T13:51:39.628Z,17.13
2022-11-07T13:54:47.138Z,16.90
2022-11-07T13:57:53.845Z,14.33
2022-11-07T14:00:55.514Z,13.50
2022-11-07T14:03:57.328Z,13.73
2022-11-07T14:07:00.779Z,11.17
2022-11-07T14:10:04.138Z,10.93
2022-11-07T14:13:10.869Z,9.90
2022-11-07T14:16:21.643Z,10.63
2022-11-07T14:19:26.737Z,10.13
2022-11-07T14:22:28.425Z,10.50
2022-11-07T14:25:31.261Z,9.87
2022-11-07T14:28:37.253Z,10.63
2022-11-07T14:31:38.934Z,11.27
2022-11-07T14:34:43.844Z,11.00
2022-11-07T14:37:45.537Z,12.83
2022-11-07T14:40:47.585Z,11.03
2022-11-07T14:43:49.741Z,11.50
2022-11-07T14:46:52.854Z,11.40
2022-11-07T14:49:54.666Z,10.37
2022-11-07T14:53:00.634Z,10.33
2022-11-07T14:56:03.853Z,11.73
2022-11-07T14:59:10.096Z,12.00
2022-11-07T15:02:22.859Z,14.03
2022-11-07T15:05:24.569Z,14.00
2022-11-07T15:08:30.616Z,12.80
2022-11-07T15:11:36.423Z,13.43
2022-11-07T15:14:38.394Z,11.97
2022-11-07T15:17:59.859Z,13.53
2022-11-07T15:21:02.204Z,13.53
2022-11-07T15:24:22.486Z,15.20
2022-11-07T15:27:31.737Z,16.70
2022-11-07T15:30:33.882Z,14.07
2022-11-07T15:33:35.708Z,15.43
2022-11-07T15:36:41.066Z,19.00
2022-11-07T15:39:43.001Z,17.17
2022-11-07T15:42:44.546Z,17.00
2022-11-07T15:45:47.496Z,20.10
2022-11-07T15:48:49.330Z,20.50
2022-11-07T15:51:50.929Z,19.60
2022-11-07T15:54:52.516Z,20.33
2022-11-07T15:57:54.346Z,22.63
2022-11-07T16:00:56.888Z,28.20
2022-11-07T16:03:58.557Z,23.00
2022-11-07T16:07:00.253Z,24.07
2022-11-07T16:10:02.547Z,20.73
2022-11-07T16:13:05.271Z,22.20
2022-11-07T16:16:07.557Z,28.07
2022-11-07T16:19:12.565Z,25.90
2022-11-07T16:22:15.081Z,25.27
2022-11-07T16:25:21.872Z,25.80
2022-11-07T16:28:24.136Z,24.70
2022-11-07T16:31:25.914Z,25.53
2022-11-07T16:34:27.554Z,24.70
2022-11-07T16:37:29.117Z,25.07
2022-11-07T16:40:30.705Z,23.80
2022-11-07T16:43:35.079Z,29.97
2022-11-07T16:46:36.904Z,30.20
2022-11-07T16:49:39.300Z,33.73
2022-11-07T16:52:40.840Z,47.63
2022-11-07T16:55:49.502Z,33.17
2022-11-07T16:58:54.892Z,27.53
2022-11-07T17:01:57.574Z,28.13
2022-11-07T17:04:59.329Z,27.17
2022-11-07T17:08:02.083Z,28.20
2022-11-07T17:11:04.252Z,25.10
2022-11-07T17:14:05.908Z,24.37
2022-11-07T17:17:07.784Z,24.03
2022-11-07T17:20:34.232Z,24.77
2022-11-07T17:23:41.301Z,25.47
2022-11-07T17:26:42.988Z,25.90
2022-11-07T17:29:44.656Z,25.87
2022-11-07T17:32:46.714Z,25.77
2022-11-07T17:35:49.034Z,27.50
2022-11-07T17:38:51.370Z,27.60
2022-11-07T17:41:53.000Z,31.50
2022-11-07T17:44:54.592Z,34.00
2022-11-07T17:47:56.285Z,34.83
2022-11-07T17:50:58.022Z,34.43
2022-11-07T17:53:59.713Z,31.70
2022-11-07T17:57:03.590Z,32.90
2022-11-07T18:00:13.847Z,32.53
2022-11-07T18:03:15.443Z,30.07
2022-11-07T18:06:17.348Z,27.10
2022-11-07T18:09:18.954Z,26.40
2022-11-07T18:12:20.550Z,26.53
2022-11-07T18:15:22.284Z,26.33
2022-11-07T18:18:23.898Z,26.77
2022-11-07T18:21:25.832Z,26.47
2022-11-07T18:24:27.469Z,25.63
2022-11-07T18:27:29.056Z,27.67
2022-11-07T18:30:30.769Z,27.60
2022-11-07T18:33:32.447Z,28.27
2022-11-07T18:36:36.942Z,28.63
2022-11-07T18:39:38.998Z,31.77
2022-11-07T18:42:44.561Z,38.23
2022-11-07T18:45:46.105Z,40.67
2022-11-07T18:48:47.725Z,27.13
2022-11-07T18:51:49.300Z,27.70
2022-11-07T18:54:51.517Z,25.23
2022-11-07T18:57:53.317Z,23.37
2022-11-07T19:00:55.256Z,23.00
2022-11-07T19:03:58.096Z,21.70
2022-11-07T19:07:00.935Z,23.43
2022-11-07T19:10:02.606Z,24.37
2022-11-07T19:13:08.135Z,22.50
2022-11-07T19:16:10.874Z,23.13
2022-11-07T19:19:12.506Z,21.00
2022-11-07T19:22:14.888Z,20.57
2022-11-07T19:25:19.047Z,21.93
2022-11-07T19:28:20.656Z,23.60
2022-11-07T19:31:22.308Z,25.57
2022-11-07T19:34:25.727Z,24.33
2022-11-07T19:37:27.450Z,26.27
2022-11-07T19:40:29.730Z,24.67
2022-11-07T19:43:32.020Z,26.77
2022-11-07T19:46:33.690Z,28.33
2022-11-07T19:49:35.321Z,28.00
2022-11-07T19:52:37.029Z,27.07
2022-11-07T19:55:38.905Z,26.17
2022-11-07T19:58:41.229Z,25.53
2022-11-07T20:01:42.939Z,25.60
2022-11-07T20:04:44.704Z,22.80
2022-11-07T20:07:59.508Z,23.63
2022-11-07T20:11:05.654Z,21.73
2022-11-07T20:14:07.238Z,24.10
2022-11-07T20:17:08.897Z,23.50
2022-11-07T20:20:13.652Z,22.67
2022-11-07T20:23:16.062Z,23.10
2022-11-07T20:26:19.265Z,28.00
2022-11-07T20:29:24.364Z,22.70
2022-11-07T20:32:26.568Z,22.57
2022-11-07T20:35:28.430Z,23.03
2022-11-07T20:38:30.295Z,22.30
2022-11-07T20:41:33.008Z,22.37
2022-11-07T20:44:35.058Z,22.30
2022-11-07T20:47:36.703Z,22.37
2022-11-07T20:50:38.360Z,21.97
2022-11-07T20:53:43.230Z,26.07
2022-11-07T20:56:47.071Z,23.00
2022-11-07T20:59:48.677Z,25.23
2022-11-07T21:02:50.316Z,24.53
2022-11-07T21:05:52.199Z,23.30
2022-11-07T21:08:53.772Z,23.47
2022-11-07T21:11:55.426Z,23.37
2022-11-07T21:14:57.037Z,26.17
2022-11-07T21:17:58.783Z,27.00
2022-11-07T21:21:06.199Z,26.97
2022-11-07T21:24:08.127Z,27.43
2022-11-07T21:27:09.698Z,25.23
2022-11-07T21:30:12.983Z,26.80
2022-11-07T21:33:15.602Z,27.97
2022-11-07T21:36:19.257Z,27.43
2022-11-07T21:39:20.836Z,25.87
2022-11-07T21:42:22.686Z,24.50
2022-11-07T21:45:24.340Z,24.77
2022-11-07T21:48:26.047Z,23.97
2022-11-07T21:51:31.544Z,22.97
2022-11-07T21:54:33.626Z,22.80
2022-11-07T21:57:35.292Z,23.20
2022-11-07T22:00:37.268Z,23.53
2022-11-07T22:04:04.280Z,24.47
2022-11-07T22:07:01.063Z,21.53
2022-11-07T22:10:03.747Z,22.93
2022-11-07T22:13:07.230Z,23.10
2022-11-07T22:16:11.400Z,21.90
2022-11-07T22:19:13.308Z,21.60
2022-11-07T22:22:14.893Z,22.40
2022-11-07T22:25:16.485Z,22.30
2022-11-07T22:28:18.051Z,22.40
2022-11-07T22:31:24.052Z,22.83
2022-11-07T22:34:25.809Z,20.60
2022-11-07T22:37:27.494Z,19.70
2022-11-07T22:40:29.183Z,21.10
2022-11-07T22:43:30.984Z,20.23
2022-11-07T22:46:32.578Z,20.33
2022-11-07T22:49:34.109Z,18.70
2022-11-07T22:52:35.689Z,20.10
2022-11-07T22:55:37.660Z,19.50
2022-11-07T22:58:39.600Z,20.37
2022-11-07T23:01:42.236Z,21.47
2022-11-07T23:04:43.918Z,22.17
2022-11-07T23:07:48.405Z,22.03
2022-11-07T23:11:38.495Z,20.37
2022-11-07T23:14:21.957Z,20.67
2022-11-07T23:17:23.928Z,22.17
2022-11-07T23:20:44.205Z,21.53
2022-11-07T23:23:45.896Z,21.93
2022-11-07T23:26:47.499Z,19.67
2022-11-07T23:29:49.118Z,19.27
2022-11-07T23:32:50.731Z,19.17
2022-11-07T23:35:52.364Z,18.63
2022-11-07T23:38:53.996Z,19.50
2022-11-07T23:41:55.567Z,18.93
2022-11-07T23:45:15.425Z,19.70
2022-11-07T23:48:35.791Z,19.90
2022-11-07T23:51:37.552Z,18.90
2022-11-07T23:54:57.736Z,18.30
2022-11-07T23:58:18.191Z,19.73
